AirNav   Air Wisconsin pilot careers
 
 1442 users online  

03OR Powwatka Ridge Airport
Troy, Oregon, USA

GOING TO TROY?


FAA INFORMATION EFFECTIVE 23 MAY 2019

Location

FAA Identifier: 03OR
Lat/Long: 45-51-19.5190N / 117-29-03.6390W
45-51.325317N / 117-29.060650W
45.8554219 / -117.4843442
(estimated)
Elevation: 3340 ft. / 1018 m (estimated)
Variation: 18E (1985)
From city: 5 miles S of TROY, OR
Time zone: UTC -7 (UTC -8 during Standard Time)
Zip code: 97885

Airport Operations

Airport use: Private use. Permission required prior to landing
Activation date: 07/1980
Control tower: no
ARTCC: SEATTLE CENTER
FSS: MC MINNVILLE FLIGHT SERVICE STATION
Attendance: UNATNDD
Wind indicator: yes
Segmented circle: no

Nearby radio navigation aids

VOR radial/distance  VOR name  Freq  Var
ALWr092/36.5WALLA WALLA VOR/DME116.4020E

 
NDB name  Hdg/Dist  Freq  Var  ID
LA GRANDE016/36.729617ELGD .-.. --. -..

Airport Services

Runway Information

Runway 7/25

Dimensions: 2950 x 60 ft. / 899 x 18 m
Surface: concrete
RUNWAY 7  RUNWAY 25
Traffic pattern: leftleft

Airport Ownership and Management from official FAA records

Ownership: Privately-owned
Owner: MARK S. HEMSTREET
11600 SW BARNES ROAD
PORTLAND, OR 97225
Phone 503-641-6565

Additional Remarks

OWNER DESIRES ARPT NOT BE CHARTED.

Instrument Procedures

There are no published instrument procedures at 03OR.

Some nearby airports with instrument procedures:

KALW - Walla Walla Regional Airport (36 nm NW)
KLWS - Lewiston-Nez Perce County Airport (37 nm NE)
KLGD - La Grande/Union County Airport (40 nm SW)
KPUW - Pullman/Moscow Regional Airport (56 nm N)
KGIC - Idaho County Airport (57 nm E)
 
Loc | Ops | Rwys | IFR | FBO | Links
Com | Nav | Svcs | Stats | Notes
Area around 03OR (Powwatka Ridge Airport)
 
Road maps at: MapQuest Bing Google
 
Aerial photo
WARNING: Photo may not be current or correct
Aerial photo of 03OR (Powwatka Ridge Airport)
Do you have a better or more recent aerial photo of Powwatka Ridge Airport that you would like to share? If so, please send us your photo.

 
Sectional chart

 
Airport distance calculator
Flying to Powwatka Ridge Airport? Find the distance to fly.

From to 03OR

Sunrise and sunset
Times for 18-Jun-2019
 Local
(UTC-7)
 Zulu
(UTC)
Morning civil twilight04:2211:22
Sunrise05:0012:00
Sunset20:4203:42
Evening civil twilight21:2004:20

Current date and time
Zulu (UTC)  18-Jun-2019 20:43:11
Local (UTC-7)  18-Jun-2019 13:43:11
 
METAR
KLWS 
36nm NE 
181956Z 33013G20KT 10SM FEW075 28/07 A3000 RMK AO2 SLP147 T02830072
KALW 
36nm NW 
181953Z 20006KT 10SM CLR 27/09 A3003 RMK AO2 SLP161 T02670089
KLGD 
41nm SW 
181956Z AUTO 28013G18KT 10SM CLR 25/07 A3008 RMK AO2 SLP317 T02500067
KMEH 
44nm SW 
181956Z AUTO VRB05KT 10SM SCT045 21/08 A3014 RMK AO2 SLP190 T02110078
TAF
KLWS 
36nm NE 
181740Z 1818/1918 VRB04KT P6SM FEW070 FM181900 30012G20KT P6SM FEW070 FM190400 26007KT P6SM FEW250 FM191500 29011G18KT P6SM FEW250
KALW 
36nm NW 
181720Z 1818/1918 22012G20KT P6SM FEW060 FEW250 FM182000 22018G28KT P6SM FEW250 FM190100 22014G24KT P6SM FEW250 FM191500 22018G28KT P6SM FEW250
NOTAMs
Click for the latest NOTAMs
NOTAMs are issued by the DoD/FAA and will open in a separate window not controlled by AirNav.

 

 
 

Would you like to see your business listed on this page?

 If your business provides an interesting product or service to pilots, flight crews, aircraft, or users of the Powwatka Ridge Airport, you should consider listing it here.  To start the listing process, click on the button below
 
Add a business
 

Other Pages about Powwatka Ridge Airport

Update a link
 
Copyright © AirNav, LLC. All rights reserved. Privacy Policy  Contact